Insider trading report: insider purchases reported on August 7, 2019 , Part 2

This page lists insider stock purchases reported on August 7, 2019. To query the history of insider trading activities (stock purchases, sales, and option exercises) for a particular company, click on the Issuer column. For the most current insider trading transactions see Realtime Insider Trading Report. For insider stock sales reported on this day see insider trading report: insider sales reported on August 7, 2019.

 1   2 

Insider stock purchases reported on August 7, 2019 , Part 2 (This report is sorted by stock symbol).
Sort by
Symbol
Company Insider Name   Shares     Price   Sort by
Value($)
Trade
Date
OAK Oaktree Capital Group, Llc 1st time Gilbert Steven J (Director) 10,000 26.66 266,580 2019-08-05
   Gilbert Steven J (Director) 15,000 26.60 399,015 2019-08-07
PATI Patriot Transportation Holding, Inc. 1st time Sandlin Robert E (President & CEO) 200 17.50 3,500 2019-08-05
   Sandlin Robert E (President & CEO) 5 17.50 87 2019-08-06
PBF Pbf Energy Inc. 1st time Inversora Carso, S.a. De C.v. 300,000 23.19 6,956,400 2019-08-06
   Inversora Carso, S.a. De C.v. 238,300 23.12 5,508,781 2019-08-05
PCSB Pcsb Financial Corp 1st time Nogles Scott (Executive VP and COO) 1,000 19.05 19,050 2019-08-06
   Nogles Scott (Executive VP and COO) 1,000 18.80 18,800 2019-08-07
   Weber Clifford S. (SVP, CRO, Gen Csl & Corp Sec) 1,000 18.90 18,900 2019-08-07
PNFP Pinnacle Financial Partners Inc 1st time Ingram David B 4,100 53.50 219,350 2019-08-07
   Ingram David B 20,000 54.49 1,089,840 2019-08-06
PTN Palatin Technologies Inc 1st time Hull Joseph Stanley 800 .78 627 2019-08-05
QTS Qts Realty Trust, Inc. 1st time Rehberger Wayne M 1,100 45.50 50,050 2019-08-05
RM Regional Management Corp. 1st time Schachtel John D. (EVP and COO) 3,500 26.30 92,050 2019-08-06
   Schachtel John D. (EVP and COO) 3,500 25.96 90,860 2019-08-05
   Beck Robert William (EVP and CFO) 5,000 25.99 129,949 2019-08-05
SCPL Sciplay Corp 1st time Pinson M. Mendel 10,000 10.26 102,600 2019-08-05
STFC State Auto Financial Corp 1st time Lantow Michelle (Other) 1,000 31.02 31,025 2019-08-06
STLY Hg Holdings, Inc. 1st time Frederick Tucker Golden 50,000 .55 27,500 2019-08-05
SWZ Swiss Helvetia Fund, Inc. 1st time Sell Moritz A 1,875 7.87 14,763 2019-08-05
TCBK Trico Bancshares / 1st time Koehnen Michael W (Director) 15,000 35.83 537,450 2019-08-07
TCO Taubman Centers Inc 1st time Embler Michael J 5,000 39.11 195,550 2019-08-05
TPL Texas Pacific Land Trust 1st time Horizon Kinetics Asset Management Llc (10% Owner) 49 681.00 33,369 2019-08-06
TWLO Twilio Inc 1st time Immelt Jeffrey R (Director) 8,500 122.78 1,043,672 2019-08-05
UIHC United Insurance Holdings Corp. 1st time Hogan Michael 12,700 11.13 141,312 2019-08-05
UNVR Univar Inc. 1st time Newlin Stephen D (Executive Chairman) 3,200 19.80 63,344 2019-08-07
   Jukes David (President, COO) 5,000 19.44 97,200 2019-08-07
V Visa Inc. 1st time Morrison Denise M (Director) 1,000 171.13 171,130 2019-08-06
VAC Marriott Vacations Worldwide Corp 1st time Weisz Stephen P (President & CEO) 4,000 83.69 334,756 2019-08-05
VERY Vericity, Inc. 1st time Hohmann James E (CEO and President) 625,532 10.00 6,255,320 2019-08-07
   Hemmings Richard A (Director) 193,500 10.00 1,935,000 2019-08-07
   Harkensee James C (Executive Vice President) 327,782 10.00 3,277,820 2019-08-07
   Kim Chris S (See Remarks) 215,222 10.00 2,152,220 2019-08-07
   Zimmerman Laura R (See Remarks) 120,104 10.00 1,201,040 2019-08-07
   Schacht James W (Director) 5,124 10.00 51,240 2019-08-07
   Buchanan John E (See Remarks) 70,703 10.00 707,030 2019-08-07
   Campbell Christopher (Executive Vice President) 102,521 10.00 1,025,210 2019-08-07
WMB Williams Companies, Inc. 1st time Chazen Stephen I (Director) 10,000 23.93 239,300 2019-08-05
   Chandler John D (Sr. Vice President & CFO) 10,000 23.24 232,399 2019-08-07
WTBA West Bancorporation Inc 1st time Milligan George D 5,000 20.22 101,100 2019-08-07
WTRE Watford Holdings Ltd. 1st time Hawley Robert L. (Chief Financial Officer) 1,200 19.90 23,880 2019-08-06
   Miller Thomas 4,000 19.95 79,796 2019-08-05
XCLIX Thrivent Church Loan & Income Fund 1st time Thrivent Financial For Lutherans (10% Owner) 56,497 10.62 599,998 2019-08-07

 1   2